Time;durP1;ratioP1;P1;durP2;ratioP2;P2;SDS_P1;SDS_P2;PMS_P1;PMS_P2;Temp;Humidity;BMP_temperature;BMP_pressure;BME280_temperature;BME280_humidity;BME280_pressure;Samples;Min_cycle;Max_cycle;Signal;HPM_P1;HPM_P2
2021/12/06 00:00:10;;;;;;;7.93;5.93;;;;;;;2.26;77.78;98173.97;5107978;28;20044;-66
2021/12/06 00:02:43;;;;;;;7.43;5.80;;;;;;;-0.57;77.26;97735.34;5108242;28;20040;-66
2021/12/06 00:05:16;;;;;;;7.75;5.70;;;;;;;2.26;77.71;98171.34;5108148;28;20048;-66
2021/12/06 00:07:48;;;;;;;7.68;5.85;;;;;;;2.27;77.60;98173.06;5108312;28;20040;-65
2021/12/06 00:10:22;;;;;;;7.85;5.15;;;;;;;2.26;77.65;98176.59;5108371;28;20086;-66
2021/12/06 00:12:55;;;;;;;8.57;5.70;;;;;;;2.23;77.71;98175.78;5107858;28;20200;-65
2021/12/06 00:15:31;;;;;;;6.88;5.75;;;;;;;2.23;77.81;98186.25;5108151;28;20089;-66
2021/12/06 00:18:03;;;;;;;7.97;5.60;;;;;;;2.17;78.00;98181.28;5108269;28;20058;-65
2021/12/06 00:20:35;;;;;;;7.18;5.45;;;;;;;2.17;77.85;98186.50;5107093;28;20097;-66
2021/12/06 00:23:08;;;;;;;9.15;6.32;;;;;;;2.19;77.74;98191.66;5108081;28;20048;-66
2021/12/06 00:25:41;;;;;;;6.78;5.00;;;;;;;2.16;77.87;98186.56;5107732;28;20254;-66
2021/12/06 00:28:14;;;;;;;7.68;5.45;;;;;;;2.11;77.85;98191.13;5107828;28;20040;-65
2021/12/06 00:30:46;;;;;;;5.80;4.55;;;;;;;2.13;77.87;98194.53;5108041;28;20085;-65
2021/12/06 00:33:19;;;;;;;6.50;5.15;;;;;;;1.84;78.10;98159.09;5107926;28;20044;-65
2021/12/06 00:35:51;;;;;;;7.15;4.60;;;;;;;2.09;78.01;98203.41;5106695;28;20319;-65
2021/12/06 00:38:24;;;;;;;6.55;4.78;;;;;;;2.06;78.12;98199.16;5107348;28;20040;-66
2021/12/06 00:40:58;;;;;;;5.85;5.07;;;;;;;2.04;78.45;98195.75;5107490;28;20044;-66
2021/12/06 00:43:30;;;;;;;6.80;5.17;;;;;;;2.05;78.43;98207.91;5107512;28;20341;-66
2021/12/06 00:46:03;;;;;;;4.93;4.20;;;;;;;2.07;78.48;98202.59;5107403;28;20401;-65
2021/12/06 00:48:35;;;;;;;5.28;4.10;;;;;;;2.07;78.25;98213.91;5107401;28;20284;-66
2021/12/06 00:51:07;;;;;;;6.72;5.43;;;;;;;2.02;78.08;98215.00;5107282;28;20044;-65
2021/12/06 00:53:40;;;;;;;5.40;3.70;;;;;;;2.03;78.05;98214.94;5107245;28;20089;-65
2021/12/06 00:56:13;;;;;;;5.22;4.13;;;;;;;2.00;78.30;98217.69;5107070;28;20061;-65
2021/12/06 00:58:46;;;;;;;4.75;4.05;;;;;;;2.03;78.22;98227.16;5107434;28;20043;-65
2021/12/06 01:01:18;;;;;;;4.95;3.75;;;;;;;1.68;78.25;98171.03;5107137;28;20047;-65
2021/12/06 01:03:51;;;;;;;4.10;3.20;;;;;;;2.01;77.99;98231.59;5106976;28;20044;-66
2021/12/06 01:06:23;;;;;;;4.07;3.13;;;;;;;1.99;78.14;98230.81;5107232;28;20051;-65
2021/12/06 01:08:55;;;;;;;5.18;3.00;;;;;;;2.01;78.10;98232.44;5106441;28;20040;-65
2021/12/06 01:11:29;;;;;;;4.18;3.22;;;;;;;2.00;78.12;98237.72;5106699;28;20044;-66
2021/12/06 01:14:01;;;;;;;5.25;3.22;;;;;;;2.01;78.08;98228.97;5107136;28;20173;-65
2021/12/06 01:16:33;;;;;;;5.28;3.67;;;;;;;2.00;78.17;98229.88;5107022;28;20093;-65
2021/12/06 01:19:05;;;;;;;7.47;5.25;;;;;;;1.99;78.38;98238.63;5106767;28;20044;-65
2021/12/06 01:21:46;;;;;;;6.78;4.70;;;;;;;1.96;78.39;98239.59;5106667;28;20081;-65
2021/12/06 01:24:24;;;;;;;8.40;6.13;;;;;;;1.97;78.73;98237.84;5106871;28;20096;-65
2021/12/06 01:27:15;;;;;;;5.63;3.72;;;;;;;1.95;78.52;98239.66;5106740;28;20091;-65
2021/12/06 01:30:06;;;;;;;6.38;4.63;;;;;;;-3.02;77.88;97406.13;5106603;28;20061;-66
2021/12/06 01:33:04;;;;;;;4.55;3.15;;;;;;;1.93;78.28;98241.50;5106845;28;20288;-65
2021/12/06 01:41:16;;;;;;;7.35;4.15;;;;;;;1.93;78.27;98246.72;5106337;28;20086;-65
2021/12/06 01:44:09;;;;;;;6.97;4.88;;;;;;;1.92;78.50;98247.63;5106365;28;20089;-65
2021/12/06 01:46:44;;;;;;;6.13;4.57;;;;;;;1.93;78.28;98251.94;5106507;28;20106;-65
2021/12/06 01:49:19;;;;;;;5.30;3.80;;;;;;;1.96;78.17;98260.50;5106519;28;20040;-65
2021/12/06 01:51:53;;;;;;;5.07;3.30;;;;;;;1.95;78.16;98264.03;5105420;28;20086;-65
2021/12/06 01:54:25;;;;;;;6.23;3.80;;;;;;;1.93;78.27;98263.25;5106525;28;20056;-65
2021/12/06 01:56:58;;;;;;;7.68;4.45;;;;;;;0.54;78.33;98067.34;5106008;28;20052;-65
2021/12/06 01:59:32;;;;;;;5.43;3.80;;;;;;;1.88;78.65;98259.94;5106310;28;20098;-65
2021/12/06 02:02:06;;;;;;;4.90;3.72;;;;;;;1.85;78.35;98263.53;5105887;28;20040;-65
2021/12/06 02:04:40;;;;;;;5.68;3.80;;;;;;;1.87;78.43;98253.03;5106027;28;20097;-65
2021/12/06 02:07:16;;;;;;;6.17;3.50;;;;;;;1.84;78.42;98251.38;5105883;28;20353;-66
2021/12/06 02:09:49;;;;;;;5.07;3.15;;;;;;;1.84;78.44;98255.75;5106116;28;20711;-65
2021/12/06 02:12:22;;;;;;;5.20;3.58;;;;;;;1.89;78.36;98246.84;5105758;28;20060;-65
2021/12/06 02:14:59;;;;;;;3.90;2.88;;;;;;;1.17;78.53;98256.41;5106679;28;20024;-65
2021/12/06 02:17:30;;;;;;;6.65;4.22;;;;;;;1.75;78.33;98219.53;5106070;28;20077;-65
2021/12/06 02:20:08;;;;;;;4.63;3.13;;;;;;;1.84;78.67;98237.47;5105742;28;20040;-65
2021/12/06 02:22:45;;;;;;;4.93;3.63;;;;;;;-2.52;78.25;97523.78;5105708;28;20134;-65
2021/12/06 02:25:19;;;;;;;3.88;3.10;;;;;;;1.80;78.79;98243.72;5105945;28;20039;-65
2021/12/06 02:27:53;;;;;;;4.05;2.95;;;;;;;1.79;78.72;98244.63;5105722;28;20090;-65
2021/12/06 02:30:25;;;;;;;3.70;2.90;;;;;;;-3.03;78.34;97441.56;5105696;28;20040;-66
2021/12/06 02:32:57;;;;;;;5.05;3.20;;;;;;;1.82;78.71;98247.13;5105599;28;20040;-65
2021/12/06 02:35:30;;;;;;;4.15;3.22;;;;;;;1.77;78.71;98260.34;5105795;28;20048;-66
2021/12/06 02:38:07;;;;;;;5.22;3.90;;;;;;;1.78;78.75;98256.84;5105617;28;20044;-65
2021/12/06 02:40:40;;;;;;;5.40;3.63;;;;;;;1.77;78.77;98256.88;5105807;28;20100;-65
2021/12/06 02:43:14;;;;;;;4.50;3.17;;;;;;;1.78;78.82;98258.59;5105548;28;20082;-65
2021/12/06 02:45:47;;;;;;;4.67;3.30;;;;;;;1.79;79.03;98296.88;5105530;28;20189;-65
2021/12/06 02:48:19;;;;;;;4.90;3.35;;;;;;;1.78;79.04;98261.19;5105652;28;20272;-65
2021/12/06 02:50:55;;;;;;;4.70;4.07;;;;;;;1.76;79.27;98252.56;5105461;28;20296;-65
2021/12/06 02:53:33;;;;;;;4.30;3.40;;;;;;;1.77;79.35;98262.97;5105435;28;20093;-65
2021/12/06 02:56:17;;;;;;;4.82;4.20;;;;;;;1.79;79.10;98260.28;5105320;28;20047;-65
2021/12/06 02:58:58;;;;;;;4.82;4.20;;;;;;;1.77;79.18;98252.50;5105703;28;20040;-66
2021/12/06 03:01:36;;;;;;;4.90;3.63;;;;;;;1.76;79.25;98255.19;5106204;28;20040;-65
2021/12/06 03:04:09;;;;;;;5.43;3.70;;;;;;;1.78;79.24;98254.22;5109509;28;20043;-66
2021/12/06 03:06:44;;;;;;;6.63;4.32;;;;;;;1.73;79.23;98250.94;5109435;28;20047;-66
2021/12/06 03:09:21;;;;;;;5.63;4.45;;;;;;;1.76;79.16;98255.19;5109378;28;20040;-66
2021/12/06 03:11:56;;;;;;;4.38;3.92;;;;;;;1.77;79.19;98249.06;5109405;28;20109;-66
2021/12/06 03:14:30;;;;;;;6.45;4.70;;;;;;;-1.83;78.94;97646.97;5109242;28;20040;-66
2021/12/06 03:17:07;;;;;;;5.00;4.10;;;;;;;1.83;78.93;98252.28;5109140;28;20040;-65
2021/12/06 03:19:39;;;;;;;6.47;4.45;;;;;;;1.85;78.94;98253.06;5109200;28;20234;-65
2021/12/06 03:22:14;;;;;;;7.15;4.60;;;;;;;1.83;79.05;98249.66;5109427;28;20097;-66
2021/12/06 03:24:48;;;;;;;5.50;4.50;;;;;;;1.85;78.95;98260.91;5109355;28;20292;-66
2021/12/06 03:27:20;;;;;;;5.77;4.60;;;;;;;1.87;78.95;98259.09;5109235;28;20117;-65
2021/12/06 03:29:50;;;;;;;5.80;5.00;;;;;;;1.89;78.97;98262.50;5109279;28;20666;-64
2021/12/06 03:32:20;;;;;;;5.68;5.10;;;;;;;1.89;78.83;98267.72;5109149;28;20342;-65
2021/12/06 03:34:50;;;;;;;7.22;5.13;;;;;;;1.89;78.99;98274.72;5108894;28;20296;-65
2021/12/06 03:37:20;;;;;;;7.47;5.45;;;;;;;1.87;79.21;98276.53;5108714;28;20370;-65
2021/12/06 03:39:52;;;;;;;6.07;5.25;;;;;;;1.88;78.91;98270.41;5108775;28;20208;-65
2021/12/06 03:42:24;;;;;;;5.97;5.38;;;;;;;1.90;78.83;98279.03;5108563;28;20040;-65
2021/12/06 03:44:56;;;;;;;6.97;5.82;;;;;;;1.89;79.10;98280.78;5108664;28;20035;-65
2021/12/06 03:47:30;;;;;;;6.68;5.65;;;;;;;1.56;79.07;98235.84;5108637;28;20044;-65
2021/12/06 03:50:04;;;;;;;7.35;6.22;;;;;;;1.89;79.05;98287.78;5108794;28;20043;-65
2021/12/06 03:52:36;;;;;;;6.78;5.32;;;;;;;1.86;79.30;98295.72;5108523;28;20044;-65
2021/12/06 03:55:12;;;;;;;7.82;5.75;;;;;;;1.80;79.36;98299.44;5108688;28;20040;-65
2021/12/06 03:57:45;;;;;;;5.78;5.18;;;;;;;1.83;79.14;98301.94;5108571;28;20044;-65
2021/12/06 04:00:17;;;;;;;6.78;5.57;;;;;;;1.82;79.52;98302.84;5108571;28;20043;-66
2021/12/06 04:02:50;;;;;;;7.45;6.00;;;;;;;1.82;79.28;98299.38;5108718;28;20036;-66
2021/12/06 04:05:22;;;;;;;8.15;5.93;;;;;;;1.83;79.13;98307.16;5108390;28;20181;-66
2021/12/06 04:07:55;;;;;;;6.68;5.40;;;;;;;1.85;79.12;98307.09;5108605;28;20093;-66
2021/12/06 04:10:28;;;;;;;6.47;5.38;;;;;;;1.85;79.30;98312.31;5108262;28;20300;-65
2021/12/06 04:13:01;;;;;;;8.82;6.38;;;;;;;1.83;79.24;98308.91;5107336;28;20312;-65
2021/12/06 04:15:35;;;;;;;8.70;6.30;;;;;;;1.82;79.18;98315.03;5108245;28;20292;-66
2021/12/06 04:18:08;;;;;;;8.15;6.22;;;;;;;1.83;79.51;98309.75;5108302;28;20090;-66
2021/12/06 04:20:40;;;;;;;7.63;6.10;;;;;;;1.81;79.55;98310.72;5108246;28;20098;-65
2021/12/06 04:23:13;;;;;;;6.70;5.57;;;;;;;1.79;79.48;98321.22;5108231;28;20250;-66
2021/12/06 04:25:48;;;;;;;8.48;7.68;;;;;;;1.86;79.12;98311.41;5107948;28;20353;-66
2021/12/06 04:28:20;;;;;;;8.48;6.53;;;;;;;1.85;79.19;98320.16;5108185;28;20048;-66
2021/12/06 04:30:52;;;;;;;10.43;7.57;;;;;;;1.86;79.20;98327.94;5107861;28;20247;-66
2021/12/06 04:33:25;;;;;;;8.82;7.22;;;;;;;1.17;79.24;98226.84;5107793;28;20047;-65
2021/12/06 04:35:57;;;;;;;8.07;6.88;;;;;;;1.86;79.19;98332.31;5107983;28;20044;-66
2021/12/06 04:38:30;;;;;;;8.27;7.03;;;;;;;1.83;79.38;98341.13;5107678;28;20048;-66
2021/12/06 04:41:04;;;;;;;8.95;8.05;;;;;;;1.83;79.36;98338.50;5107988;28;20040;-66
2021/12/06 04:43:36;;;;;;;10.50;7.80;;;;;;;1.84;79.50;98345.44;5107887;28;20117;-66
2021/12/06 04:46:16;;;;;;;9.60;7.30;;;;;;;1.53;79.54;98284.72;5090972;28;20097;-66
2021/12/06 04:48:48;;;;;;;11.70;7.65;;;;;;;1.86;79.47;98355.81;5107777;28;20044;-66
2021/12/06 04:51:21;;;;;;;9.73;7.50;;;;;;;1.86;79.23;98345.38;5107444;28;20085;-66
2021/12/06 04:53:53;;;;;;;9.95;6.93;;;;;;;1.85;79.15;98352.38;5106997;28;20105;-66
2021/12/06 04:56:29;;;;;;;10.00;7.28;;;;;;;1.87;79.15;98349.69;5107272;28;20040;-66
2021/12/06 04:59:06;;;;;;;11.05;9.00;;;;;;;1.86;79.33;98358.44;5107280;28;20040;-66
2021/12/06 05:01:41;;;;;;;11.18;8.80;;;;;;;1.88;79.41;98357.47;5107279;28;20093;-66
2021/12/06 05:04:19;;;;;;;11.13;8.38;;;;;;;1.86;79.47;98350.59;5107239;28;20085;-66
2021/12/06 05:06:57;;;;;;;11.80;9.18;;;;;;;1.89;79.25;98356.56;5107075;28;20048;-65
2021/12/06 05:09:32;;;;;;;9.80;7.75;;;;;;;-2.71;78.48;97584.91;5107340;28;20048;-66
2021/12/06 05:12:06;;;;;;;;;;;;;;;1.87;79.34;98354.91;5106565;28;20121;-66
2021/12/06 05:14:38;;;;;;;9.77;7.57;;;;;;;1.89;78.99;98359.19;5107227;28;19958;-66
2021/12/06 05:17:11;;;;;;;11.25;8.40;;;;;;;1.94;78.98;98359.03;5106816;28;20089;-66
2021/12/06 05:19:43;;;;;;;10.07;8.07;;;;;;;1.97;78.89;98361.53;5107079;28;20048;-66
2021/12/06 05:22:15;;;;;;;10.77;7.35;;;;;;;0.88;78.75;98218.25;5106824;28;20089;-66
2021/12/06 05:24:48;;;;;;;11.40;8.77;;;;;;;1.98;79.05;98370.22;5106694;28;20040;-66
2021/12/06 05:27:27;;;;;;;11.30;8.23;;;;;;;1.97;79.10;98371.13;5106570;28;20058;-66
2021/12/06 05:29:59;;;;;;;8.77;7.20;;;;;;;1.95;79.13;98368.56;5106966;28;20044;-66
2021/12/06 05:32:34;;;;;;;9.70;7.05;;;;;;;1.97;78.98;98381.56;5106706;28;20189;-65
2021/12/06 05:35:09;;;;;;;12.30;9.05;;;;;;;1.99;79.08;98372.78;5106497;28;20044;-65
2021/12/06 05:37:44;;;;;;;10.05;8.18;;;;;;;1.72;78.93;98334.56;5105879;28;20044;-65
2021/12/06 05:40:22;;;;;;;10.52;8.23;;;;;;;1.98;78.84;98378.06;5106582;28;20040;-65
2021/12/06 05:42:57;;;;;;;13.90;8.52;;;;;;;2.02;78.80;98374.41;5106273;28;20044;-65
2021/12/06 05:45:32;;;;;;;12.98;9.63;;;;;;;2.03;78.85;98378.75;5106279;28;20036;-65
2021/12/06 05:48:04;;;;;;;11.15;8.95;;;;;;;1.47;78.82;98317.13;5106166;28;20044;-65
2021/12/06 05:50:37;;;;;;;10.43;8.77;;;;;;;1.69;78.49;98334.69;5106121;28;20040;-65
2021/12/06 05:53:09;;;;;;;10.88;7.97;;;;;;;1.99;78.41;98384.97;5105903;28;20101;-65
2021/12/06 05:55:42;;;;;;;8.80;7.47;;;;;;;1.95;78.95;98388.63;5105949;28;20330;-66
2021/12/06 05:58:17;;;;;;;12.00;9.63;;;;;;;1.98;78.73;98385.88;5106046;28;20044;-66
2021/12/06 06:00:50;;;;;;;9.45;8.32;;;;;;;1.94;78.57;98392.13;5106309;28;20043;-67
2021/12/06 06:03:22;;;;;;;9.63;7.65;;;;;;;1.95;78.39;98391.22;5105969;28;20086;-66
2021/12/06 06:05:55;;;;;;;12.93;9.20;;;;;;;1.98;78.36;98398.97;5105948;28;20044;-66
2021/12/06 06:08:27;;;;;;;13.80;9.30;;;;;;;2.00;78.37;98397.13;5105991;28;20048;-65
2021/12/06 06:10:59;;;;;;;11.10;8.57;;;;;;;1.68;78.29;98351.25;5105950;28;20094;-66
2021/12/06 06:13:33;;;;;;;10.90;7.95;;;;;;;1.92;78.53;98397.41;5105899;28;20067;-65
2021/12/06 06:16:05;;;;;;;11.18;8.65;;;;;;;1.77;78.35;98377.91;5106194;28;20238;-65
2021/12/06 06:18:37;;;;;;;12.82;8.93;;;;;;;1.92;78.35;98405.25;5105644;28;20231;-66
2021/12/06 06:21:09;;;;;;;11.50;8.68;;;;;;;1.96;78.04;98404.25;5106081;28;20043;-66
2021/12/06 06:23:42;;;;;;;13.75;7.90;;;;;;;1.93;78.12;98404.34;5105756;28;20086;-66
2021/12/06 06:26:15;;;;;;;13.98;9.15;;;;;;;1.92;78.11;98405.25;5105627;28;20039;-66
2021/12/06 06:28:49;;;;;;;13.55;9.77;;;;;;;1.94;78.21;98413.88;5105074;28;20089;-66
2021/12/06 06:31:21;;;;;;;11.63;7.90;;;;;;;1.93;78.17;98411.34;5105812;28;20048;-66
2021/12/06 06:33:53;;;;;;;10.13;8.38;;;;;;;1.50;77.68;98343.13;5105365;28;20105;-66
2021/12/06 06:36:25;;;;;;;12.90;8.40;;;;;;;1.98;77.97;98419.88;5105024;28;20047;-66
2021/12/06 06:38:58;;;;;;;12.30;8.98;;;;;;;1.94;77.62;98421.72;5105423;28;20093;-65
2021/12/06 06:41:31;;;;;;;15.00;9.82;;;;;;;1.94;77.92;98429.56;5105488;28;20101;-66
2021/12/06 06:44:05;;;;;;;13.02;8.52;;;;;;;1.92;77.56;98426.16;5105222;28;20081;-66
2021/12/06 06:46:38;;;;;;;10.13;7.97;;;;;;;1.94;77.65;98437.41;5105231;28;20040;-66
2021/12/06 06:49:10;;;;;;;31.08;19.15;;;;;;;2.01;77.90;98436.28;5105458;28;20296;-65
2021/12/06 06:51:43;;;;;;;16.60;12.63;;;;;;;2.01;77.69;98446.75;5105071;28;20326;-65
2021/12/06 06:54:16;;;;;;;18.52;12.43;;;;;;;2.01;77.46;98446.75;5105092;28;20043;-66
2021/12/06 06:56:48;;;;;;;13.13;9.65;;;;;;;1.98;77.69;98457.31;5105018;28;20044;-66
2021/12/06 06:59:22;;;;;;;13.13;9.98;;;;;;;1.95;77.57;98460.03;5104859;28;20353;-65
2021/12/06 07:01:54;;;;;;;13.10;8.40;;;;;;;-2.59;76.91;97690.03;5105304;28;20076;-66
2021/12/06 07:04:27;;;;;;;12.10;8.48;;;;;;;2.00;77.07;98479.00;5105050;28;20040;-66
2021/12/06 07:06:59;;;;;;;10.45;7.80;;;;;;;1.99;77.34;98479.91;5105305;28;20044;-66
2021/12/06 07:09:31;;;;;;;14.20;9.77;;;;;;;1.94;77.18;98468.78;5105442;28;20043;-66
2021/12/06 07:12:05;;;;;;;11.50;8.43;;;;;;;2.00;77.18;98489.47;5104857;28;20056;-66
2021/12/06 07:14:39;;;;;;;10.65;7.47;;;;;;;2.00;77.38;98493.84;5105169;28;20066;-66
2021/12/06 07:17:12;;;;;;;12.02;8.88;;;;;;;1.58;77.30;98421.22;5104906;28;20077;-66
2021/12/06 07:19:44;;;;;;;14.00;9.43;;;;;;;2.01;77.19;98504.25;5104841;28;20059;-66
2021/12/06 07:22:17;;;;;;;11.93;7.65;;;;;;;2.01;77.20;98509.47;5105021;28;20097;-66
2021/12/06 07:24:49;;;;;;;13.27;8.73;;;;;;;2.03;77.23;98517.25;5105164;28;20040;-66
2021/12/06 07:27:19;;;;;;;10.75;8.95;;;;;;;2.02;77.04;98521.63;5105125;28;20040;-66
2021/12/06 07:29:51;;;;;;;9.60;8.60;;;;;;;1.96;77.09;98529.69;5104993;28;20028;-66
2021/12/06 07:32:19;;;;;;;12.43;8.48;;;;;;;1.97;77.03;98535.75;5104425;28;20320;-66
2021/12/06 07:34:50;;;;;;;11.07;9.85;;;;;;;2.01;77.12;98538.22;5105115;28;20211;-65
2021/12/06 07:37:19;;;;;;;11.05;8.55;;;;;;;2.03;77.17;98532.94;5104906;28;20044;-66
2021/12/06 07:39:49;;;;;;;10.32;8.13;;;;;;;2.04;76.79;98526.81;5105317;28;20180;-66
2021/12/06 07:42:20;;;;;;;10.70;8.13;;;;;;;2.03;76.37;98540.78;5104877;28;20238;-66
2021/12/06 07:44:52;;;;;;;11.30;8.63;;;;;;;2.04;76.44;98535.50;5104992;28;20058;-66
2021/12/06 07:47:21;;;;;;;14.05;9.43;;;;;;;0.52;76.31;98280.31;5104607;28;20375;-66
2021/12/06 07:49:50;;;;;;;13.73;9.82;;;;;;;2.08;76.55;98537.09;5107442;28;20297;-66
2021/12/06 07:52:20;;;;;;;14.80;10.52;;;;;;;2.10;76.48;98540.50;5107469;28;20405;-66
2021/12/06 07:54:50;;;;;;;11.70;8.38;;;;;;;2.09;76.65;98540.56;5108224;28;20103;-66
2021/12/06 07:57:20;;;;;;;13.30;9.75;;;;;;;2.13;76.77;98537.81;5108646;28;20054;-66
2021/12/06 07:59:52;;;;;;;14.65;10.18;;;;;;;1.93;76.66;98501.03;5108604;28;20047;-66
2021/12/06 08:02:21;;;;;;;14.05;10.90;;;;;;;2.16;77.00;98535.09;5107351;28;20047;-65
2021/12/06 08:05:00;;;;;;;12.73;10.52;;;;;;;2.15;77.07;98536.00;5108101;28;20085;-66
2021/12/06 08:07:32;;;;;;;13.48;9.32;;;;;;;2.15;77.02;98536.00;5108026;28;20058;-66
2021/12/06 08:10:05;;;;;;;12.38;9.90;;;;;;;0.66;76.89;98308.56;5108028;28;20048;-66
2021/12/06 08:12:37;;;;;;;15.00;10.50;;;;;;;2.12;77.05;98535.25;5107472;28;20055;-66
2021/12/06 08:15:11;;;;;;;13.88;10.23;;;;;;;0.73;76.92;98304.84;5107623;28;20040;-66
2021/12/06 08:17:43;;;;;;;16.55;12.13;;;;;;;2.11;76.99;98538.75;5108150;28;20085;-66
2021/12/06 08:20:16;;;;;;;15.07;11.15;;;;;;;2.13;77.16;98543.03;5107863;28;20040;-66
2021/12/06 08:22:48;;;;;;;15.63;11.25;;;;;;;2.16;76.87;98537.69;5107653;28;20181;-66
2021/12/06 08:25:20;;;;;;;17.15;10.98;;;;;;;-2.56;76.38;97734.88;5107466;28;20085;-66
2021/12/06 08:27:52;;;;;;;14.13;10.75;;;;;;;2.27;76.74;98546.94;5107770;28;20243;-65
2021/12/06 08:30:26;;;;;;;15.98;10.35;;;;;;;2.03;76.42;98510.25;5107666;28;20090;-65
2021/12/06 08:33:01;;;;;;;17.93;11.07;;;;;;;2.26;76.66;98555.69;5107591;28;20293;-65
2021/12/06 08:35:36;;;;;;;;;;;;;;;2.27;76.85;98549.53;5107990;28;20093;-65
2021/12/06 08:38:10;;;;;;;13.23;10.32;;;;;;;2.33;76.66;98551.94;5107343;28;19915;-65
2021/12/06 08:40:44;;;;;;;14.57;10.07;;;;;;;2.38;76.80;98550.88;5107336;28;20058;-65
2021/12/06 08:43:19;;;;;;;13.18;9.77;;;;;;;0.99;76.24;98308.34;5107434;28;20044;-66
2021/12/06 08:45:57;;;;;;;16.23;12.30;;;;;;;2.44;76.38;98553.28;5107132;28;20040;-66
2021/12/06 08:48:32;;;;;;;15.48;11.23;;;;;;;2.47;76.10;98560.16;5107321;28;20052;-66
2021/12/06 08:51:08;;;;;;;12.00;9.02;;;;;;;2.54;75.58;98564.28;5107480;28;20044;-66
2021/12/06 08:53:42;;;;;;;13.20;9.13;;;;;;;2.31;75.38;98525.00;5107159;28;20268;-66
2021/12/06 08:56:15;;;;;;;13.43;9.18;;;;;;;2.55;75.19;98565.97;5107222;28;20202;-66
2021/12/06 08:58:48;;;;;;;14.07;10.05;;;;;;;2.58;75.16;98573.72;5107144;28;20036;-66
2021/12/06 09:01:22;;;;;;;14.68;10.55;;;;;;;2.67;75.37;98568.16;5106679;28;20040;-66
2021/12/06 09:03:54;;;;;;;15.18;10.82;;;;;;;2.55;75.24;98550.28;5106870;28;20040;-65
2021/12/06 09:06:27;;;;;;;16.75;11.10;;;;;;;2.78;75.21;98580.84;5107294;28;20040;-66
2021/12/06 09:09:00;;;;;;;15.82;10.57;;;;;;;2.79;74.86;98578.19;5106860;28;20044;-66
2021/12/06 09:11:32;;;;;;;16.00;9.73;;;;;;;2.87;75.02;98578.75;5106588;28;20044;-66
2021/12/06 09:14:05;;;;;;;16.67;9.60;;;;;;;2.87;74.62;98580.53;5106618;28;20089;-66
2021/12/06 09:16:40;;;;;;;14.13;9.48;;;;;;;2.84;74.62;98571.03;5106971;28;20090;-67
2021/12/06 09:19:15;;;;;;;14.82;10.02;;;;;;;2.67;74.23;98560.31;5106607;28;20044;-66
2021/12/06 09:21:48;;;;;;;15.35;9.80;;;;;;;2.95;74.54;98582.88;5106708;28;20044;-66
2021/12/06 09:24:20;;;;;;;15.32;10.40;;;;;;;2.98;74.73;98583.59;5106819;28;20056;-66
2021/12/06 09:26:53;;;;;;;15.23;9.90;;;;;;;3.02;74.20;98589.59;5106451;28;20044;-66
2021/12/06 09:29:25;;;;;;;13.02;9.32;;;;;;;3.13;74.11;98590.03;5106678;28;20109;-66
2021/12/06 09:32:00;;;;;;;16.95;11.57;;;;;;;3.27;73.71;98584.28;5106554;28;20040;-66
2021/12/06 09:34:33;;;;;;;16.88;12.18;;;;;;;3.48;73.80;98581.69;5105513;28;20077;-66
2021/12/06 09:37:05;;;;;;;14.23;10.38;;;;;;;3.79;73.03;98588.34;5106167;28;20093;-65
2021/12/06 09:39:38;;;;;;;17.80;10.85;;;;;;;4.11;72.42;98581.81;5106061;28;20044;-65
2021/12/06 09:42:11;;;;;;;13.85;10.50;;;;;;;4.52;71.51;98579.22;5106395;28;20048;-65
2021/12/06 09:44:43;;;;;;;14.50;9.65;;;;;;;4.78;70.17;98565.84;5106424;28;20097;-65
2021/12/06 09:47:16;;;;;;;14.35;9.50;;;;;;;5.04;69.21;98565.53;5106330;28;20044;-65
2021/12/06 09:49:49;;;;;;;20.52;9.77;;;;;;;5.24;68.93;98566.41;5105818;28;20048;-65
2021/12/06 09:52:21;;;;;;;14.98;9.70;;;;;;;5.59;68.85;98564.75;5105981;28;20052;-65
2021/12/06 09:54:51;;;;;;;12.25;8.55;;;;;;;5.76;67.61;98564.81;5105847;28;20093;-65
2021/12/06 09:57:21;;;;;;;14.98;10.77;;;;;;;5.67;67.38;98554.75;5106128;28;20311;-66
2021/12/06 09:59:51;;;;;;;12.48;9.30;;;;;;;5.55;67.08;98550.91;5105996;28;20036;-65
2021/12/06 10:02:23;;;;;;;16.13;9.88;;;;;;;5.50;67.64;98550.28;5105795;28;20311;-66
2021/12/06 10:04:55;;;;;;;11.38;9.23;;;;;;;5.54;68.51;98561.50;5105861;28;20134;-66
2021/12/06 10:07:27;;;;;;;15.80;10.45;;;;;;;5.33;67.48;98564.22;5106052;28;20040;-66
2021/12/06 10:09:57;;;;;;;13.98;9.40;;;;;;;5.32;68.50;98567.75;5106064;28;20044;-65
2021/12/06 10:12:28;;;;;;;11.75;8.48;;;;;;;5.02;67.97;98521.91;5104726;28;20048;-66
2021/12/06 10:15:00;;;;;;;16.30;9.75;;;;;;;5.10;67.69;98561.78;5106014;28;20036;-66
2021/12/06 10:17:34;;;;;;;12.10;8.23;;;;;;;5.05;68.27;98564.63;5105658;28;20044;-66
2021/12/06 10:20:09;;;;;;;14.18;9.60;;;;;;;5.03;69.16;98570.88;5105374;28;20044;-66
2021/12/06 10:22:41;;;;;;;13.98;8.77;;;;;;;4.95;69.22;98565.13;5105636;28;20043;-66
2021/12/06 10:25:13;;;;;;;14.77;9.95;;;;;;;4.94;69.39;98560.78;5105317;28;20047;-66
2021/12/06 10:27:53;;;;;;;16.17;11.10;;;;;;;4.85;68.36;98564.63;5105275;28;20044;-66
2021/12/06 10:30:26;;;;;;;12.73;9.40;;;;;;;4.80;69.03;98566.63;5105363;28;20265;-66
2021/12/06 10:33:06;;;;;;;13.57;8.95;;;;;;;4.69;68.17;98566.22;5105401;28;20043;-66
2021/12/06 10:35:41;;;;;;;14.55;9.85;;;;;;;4.38;69.68;98509.84;5105455;28;20089;-66
2021/12/06 10:38:19;;;;;;;15.98;10.05;;;;;;;4.61;69.37;98563.94;5105357;28;20086;-66
2021/12/06 10:40:57;;;;;;;13.98;9.23;;;;;;;4.60;69.82;98562.25;5105166;28;20093;-66
2021/12/06 10:43:31;;;;;;;14.93;10.75;;;;;;;4.62;70.57;98564.78;5105117;28;20044;-66
2021/12/06 10:46:05;;;;;;;13.60;9.27;;;;;;;4.59;69.81;98560.53;5104979;28;20280;-66
2021/12/06 10:48:39;;;;;;;15.75;10.40;;;;;;;4.52;69.90;98568.75;5104762;28;20121;-66
2021/12/06 10:51:16;;;;;;;12.00;9.60;;;;;;;4.48;69.82;98562.78;5105073;28;20044;-66
2021/12/06 10:53:57;;;;;;;15.52;9.32;;;;;;;3.16;70.00;98351.66;5104603;28;20058;-66
2021/12/06 10:56:41;;;;;;;13.70;9.88;;;;;;;3.89;70.23;98492.69;5104203;28;20235;-66
2021/12/06 10:59:17;;;;;;;12.95;9.55;;;;;;;4.30;70.07;98558.31;5104973;28;20149;-66
2021/12/06 11:01:52;;;;;;;13.13;9.43;;;;;;;4.37;70.35;98562.38;5104861;28;20055;-65
2021/12/06 11:04:28;;;;;;;13.32;8.77;;;;;;;4.29;69.16;98561.84;5104519;28;20040;-66
2021/12/06 11:07:05;;;;;;;12.95;8.50;;;;;;;4.23;69.99;98554.25;5104391;28;20116;-66
2021/12/06 11:09:40;;;;;;;12.00;9.02;;;;;;;4.21;70.59;98550.81;5104642;28;20105;-66
2021/12/06 11:12:18;;;;;;;12.52;8.50;;;;;;;4.17;69.98;98550.94;5104198;28;20060;-66
2021/12/06 11:14:51;;;;;;;14.88;9.38;;;;;;;4.18;70.82;98549.16;5104242;28;20242;-66
2021/12/06 11:17:21;;;;;;;15.15;9.77;;;;;;;4.16;70.75;98549.22;5104337;28;20036;-66
2021/12/06 11:19:54;;;;;;;16.10;10.05;;;;;;;4.18;70.85;98554.41;5104578;28;20206;-65
2021/12/06 11:22:26;;;;;;;13.02;10.38;;;;;;;4.13;71.08;98553.75;5104790;28;20150;-65
2021/12/06 11:24:56;;;;;;;14.43;10.75;;;;;;;4.13;71.56;98551.97;5108006;28;20039;-66
2021/12/06 11:27:29;;;;;;;12.32;9.55;;;;;;;4.09;70.92;98546.91;5108376;28;20092;-66
2021/12/06 11:30:00;;;;;;;13.48;9.88;;;;;;;4.08;71.10;98547.84;5108308;28;20296;-66
2021/12/06 11:32:35;;;;;;;14.25;10.80;;;;;;;4.09;70.86;98558.25;5106994;28;20081;-65
2021/12/06 11:35:13;;;;;;;16.33;11.57;;;;;;;4.07;70.83;98556.63;5108379;28;20096;-65
2021/12/06 11:37:48;;;;;;;15.43;12.00;;;;;;;4.03;71.08;98542.78;5107610;28;20089;-66
2021/12/06 11:40:24;;;;;;;13.45;9.68;;;;;;;3.99;70.73;98543.81;5108342;28;20276;-65
2021/12/06 11:43:00;;;;;;;12.02;9.25;;;;;;;3.98;71.11;98542.13;5108155;28;20092;-65
2021/12/06 11:45:35;;;;;;;14.82;10.35;;;;;;;3.96;71.03;98538.72;5108244;28;20245;-65
2021/12/06 11:48:10;;;;;;;12.25;9.30;;;;;;;2.77;71.10;98351.50;5108251;28;20086;-65
2021/12/06 11:50:46;;;;;;;14.68;9.77;;;;;;;3.91;71.09;98547.69;5107958;28;20105;-66
2021/12/06 11:53:21;;;;;;;11.77;8.80;;;;;;;3.88;71.10;98587.13;5108011;28;20089;-65
2021/12/06 11:55:57;;;;;;;15.85;10.23;;;;;;;2.87;71.19;98373.78;5107999;28;20040;-66
2021/12/06 11:58:32;;;;;;;13.57;9.13;;;;;;;3.89;71.31;98529.41;5108159;28;20296;-66
2021/12/06 12:01:07;;;;;;;12.23;9.75;;;;;;;3.83;70.91;98537.50;5107976;28;20048;-65
2021/12/06 12:03:43;;;;;;;15.35;9.93;;;;;;;3.80;71.27;98542.88;5107658;28;20086;-66
2021/12/06 12:06:24;;;;;;;10.82;9.40;;;;;;;3.77;70.96;98550.88;5108092;28;20044;-65
2021/12/06 12:09:12;;;;;;;12.07;9.32;;;;;;;3.76;70.64;98550.00;5107779;28;20046;-66
2021/12/06 12:12:09;;;;;;;16.33;10.65;;;;;;;3.80;70.87;98554.22;5107594;28;20043;-66